createdAt,value
2023-05-02T00:01:34.474Z,77350.94
2023-05-02T00:04:01.071Z,77377.47
2023-05-02T00:06:27.668Z,77397.84
2023-05-02T00:08:54.132Z,77395.81
2023-05-02T00:11:20.815Z,77414.16
2023-05-02T00:13:47.128Z,77418.25
2023-05-02T00:16:13.444Z,77442.72
2023-05-02T00:18:39.754Z,77442.72
2023-05-02T00:21:07.001Z,77452.91
2023-05-02T00:23:33.318Z,77465.16
2023-05-02T00:25:59.871Z,77465.16
2023-05-02T00:28:26.975Z,77463.13
2023-05-02T00:30:53.739Z,77465.16
2023-05-02T00:33:20.076Z,77465.16
2023-05-02T00:35:46.443Z,77467.19
2023-05-02T00:38:12.884Z,77471.28
2023-05-02T00:40:46.788Z,77471.28
2023-05-02T00:43:14.092Z,77463.13
2023-05-02T00:45:43.356Z,77471.28
2023-05-02T00:48:11.033Z,77473.31
2023-05-02T00:50:40.336Z,77465.16
2023-05-02T00:53:07.837Z,77469.25
2023-05-02T00:55:34.655Z,77481.47
2023-05-02T00:58:03.385Z,77471.28
2023-05-02T01:01:07.102Z,77469.25
2023-05-02T01:03:42.185Z,77479.44
2023-05-02T01:06:33.760Z,77485.56
2023-05-02T01:09:34.392Z,77493.72
2023-05-02T01:12:10.060Z,77505.94
2023-05-02T01:14:42.861Z,77508.00
2023-05-02T01:17:13.150Z,77495.75
2023-05-02T01:19:43.553Z,77501.88
2023-05-02T01:22:11.980Z,77491.66
2023-05-02T01:24:59.976Z,77483.50
2023-05-02T01:27:57.941Z,77493.72
2023-05-02T01:30:26.735Z,77493.72
2023-05-02T01:32:55.297Z,77487.59
2023-05-02T01:35:23.506Z,77483.50
2023-05-02T01:37:52.032Z,77491.66
2023-05-02T01:40:20.588Z,77491.66
2023-05-02T01:42:51.779Z,77497.78
2023-05-02T01:45:20.796Z,77487.59
2023-05-02T01:47:48.509Z,77493.72
2023-05-02T01:50:18.993Z,77497.78
2023-05-02T01:52:47.294Z,77493.72
2023-05-02T01:55:15.122Z,77499.84
2023-05-02T01:57:44.299Z,77491.66
2023-05-02T02:00:12.734Z,77493.72
2023-05-02T02:02:45.069Z,77499.84
2023-05-02T02:05:14.579Z,77503.91
2023-05-02T02:07:40.958Z,77499.84
2023-05-02T02:10:07.883Z,77499.84
2023-05-02T02:12:45.333Z,77501.88
2023-05-02T02:15:31.973Z,77499.84
2023-05-02T02:18:09.396Z,77508.00
2023-05-02T02:20:36.200Z,77501.88
2023-05-02T02:23:06.701Z,77503.91
2023-05-02T02:25:34.463Z,77510.03
2023-05-02T02:28:01.090Z,77512.06
2023-05-02T02:30:27.758Z,77514.09
2023-05-02T02:32:54.189Z,77518.19
2023-05-02T02:35:20.771Z,77522.25
2023-05-02T02:38:26.780Z,77518.19
2023-05-02T02:41:11.737Z,77520.22
2023-05-02T02:43:53.625Z,77526.34
2023-05-02T02:46:34.541Z,77520.22
2023-05-02T02:49:45.684Z,77526.34
2023-05-02T02:52:32.660Z,77522.25
2023-05-02T02:55:16.181Z,77532.47
2023-05-02T02:57:57.861Z,77528.38
2023-05-02T03:00:27.314Z,77534.50
2023-05-02T03:02:55.353Z,77530.44
2023-05-02T03:05:22.916Z,77530.44
2023-05-02T03:07:50.992Z,77526.34
2023-05-02T03:10:17.896Z,77530.44
2023-05-02T03:12:44.230Z,77528.38
2023-05-02T03:15:32.054Z,77522.25
2023-05-02T03:17:59.257Z,77528.38
2023-05-02T03:20:25.714Z,77524.31
2023-05-02T03:22:53.387Z,77526.34
2023-05-02T03:25:19.715Z,77520.22
2023-05-02T03:27:48.703Z,77526.34
2023-05-02T03:30:15.440Z,77516.16
2023-05-02T03:32:41.863Z,77522.25
2023-05-02T03:35:08.561Z,77528.38
2023-05-02T03:37:39.495Z,77520.22
2023-05-02T03:40:06.735Z,77524.31
2023-05-02T03:42:39.856Z,77522.25
2023-05-02T03:45:10.300Z,77530.44
2023-05-02T03:47:36.703Z,77534.50
2023-05-02T03:50:03.595Z,77532.47
2023-05-02T03:52:31.057Z,77534.50
2023-05-02T03:54:57.725Z,77532.47
2023-05-02T03:57:24.133Z,77532.47
2023-05-02T03:59:50.530Z,77530.44
2023-05-02T04:02:25.378Z,77540.63
2023-05-02T04:04:52.004Z,77534.50
2023-05-02T04:07:21.061Z,77536.53
2023-05-02T04:09:55.076Z,77540.63
2023-05-02T04:12:21.522Z,77542.66
2023-05-02T04:14:50.997Z,77544.69
2023-05-02T04:17:17.399Z,77554.91
2023-05-02T04:19:48.855Z,77563.06
2023-05-02T04:22:16.256Z,77569.19
2023-05-02T04:24:47.061Z,77575.28
2023-05-02T04:27:15.464Z,77587.53
2023-05-02T04:29:42.118Z,77585.50
2023-05-02T04:32:10.184Z,77589.56
2023-05-02T04:34:36.690Z,77589.56
2023-05-02T04:37:03.343Z,77595.69
2023-05-02T04:39:30.981Z,77597.72
2023-05-02T04:42:01.726Z,77599.78
2023-05-02T04:44:31.180Z,77595.69
2023-05-02T04:46:57.775Z,77601.81
2023-05-02T04:49:24.099Z,77601.81
2023-05-02T04:51:52.565Z,77614.03
2023-05-02T04:54:19.542Z,77614.03
2023-05-02T04:56:47.533Z,77628.31
2023-05-02T04:59:14.604Z,77642.59
2023-05-02T05:01:41.110Z,77654.84
2023-05-02T05:04:09.051Z,77671.16
2023-05-02T05:06:35.910Z,77677.28
2023-05-02T05:09:03.874Z,77681.34
2023-05-02T05:11:30.517Z,77697.66
2023-05-02T05:13:57.101Z,77697.66
2023-05-02T05:16:24.002Z,77703.78
2023-05-02T05:18:53.707Z,77718.06
2023-05-02T05:21:20.133Z,77718.06
2023-05-02T05:23:47.571Z,77720.09
2023-05-02T05:26:19.143Z,77714.00
2023-05-02T05:28:47.529Z,77722.16
2023-05-02T05:31:17.645Z,77722.16
2023-05-02T05:33:47.794Z,77728.25
2023-05-02T05:36:17.603Z,77728.25
2023-05-02T05:38:44.533Z,77736.44
2023-05-02T05:41:11.414Z,77730.31
2023-05-02T05:43:41.829Z,77732.34
2023-05-02T05:46:08.593Z,77728.25
2023-05-02T05:48:36.768Z,77730.31
2023-05-02T05:51:05.153Z,77730.31
2023-05-02T05:53:32.413Z,77734.38
2023-05-02T05:56:07.887Z,77740.50
2023-05-02T05:58:34.292Z,77730.31
2023-05-02T06:01:00.735Z,77732.34
2023-05-02T06:03:27.087Z,77730.31
2023-05-02T06:05:54.709Z,77730.31
2023-05-02T06:08:21.521Z,77738.47
2023-05-02T06:10:47.859Z,77730.31
2023-05-02T06:13:14.537Z,77732.34
2023-05-02T06:15:43.086Z,77732.34
2023-05-02T06:18:09.587Z,77724.19
2023-05-02T06:20:37.025Z,77730.31
2023-05-02T06:23:03.674Z,77732.34
2023-05-02T06:25:30.158Z,77732.34
2023-05-02T06:27:56.469Z,77734.38
2023-05-02T06:30:22.854Z,77734.38
2023-05-02T06:32:49.193Z,77736.44
2023-05-02T06:35:16.009Z,77744.59
2023-05-02T06:37:42.351Z,77742.53
2023-05-02T06:40:09.987Z,77750.69
2023-05-02T06:42:36.329Z,77760.91
2023-05-02T06:45:02.830Z,77764.97
2023-05-02T06:47:29.542Z,77752.75
2023-05-02T06:49:55.941Z,77760.91
2023-05-02T06:52:22.325Z,77769.06
2023-05-02T06:54:48.775Z,77764.97
2023-05-02T06:57:15.456Z,77779.25
2023-05-02T06:59:41.967Z,77775.19
2023-05-02T07:02:08.439Z,77785.38
2023-05-02T07:04:34.805Z,77793.53
2023-05-02T07:07:01.208Z,77805.78
2023-05-02T07:09:27.565Z,77822.09
2023-05-02T07:11:53.900Z,77842.47
2023-05-02T07:14:20.718Z,77848.59
2023-05-02T07:16:47.149Z,77864.91
2023-05-02T07:19:13.554Z,77869.00
2023-05-02T07:21:39.878Z,77881.25
2023-05-02T07:24:06.213Z,77885.31
2023-05-02T07:26:32.633Z,77907.75
2023-05-02T07:28:58.969Z,77895.53
2023-05-02T07:31:25.401Z,77895.53
2023-05-02T07:33:51.799Z,77893.47
2023-05-02T07:36:18.155Z,77907.75
2023-05-02T07:38:44.521Z,77905.72
2023-05-02T07:41:10.925Z,77907.75
2023-05-02T07:43:37.237Z,77905.72
2023-05-02T07:46:05.516Z,77893.47
2023-05-02T07:48:32.147Z,77891.44
2023-05-02T07:51:07.157Z,77883.28
2023-05-02T07:53:33.978Z,77887.34
2023-05-02T07:56:00.415Z,77891.44
2023-05-02T07:58:27.775Z,77885.31
2023-05-02T08:00:54.113Z,77895.53
2023-05-02T08:03:20.643Z,77903.69
2023-05-02T08:05:47.039Z,77903.69
2023-05-02T08:08:13.362Z,77920.00
2023-05-02T08:10:39.681Z,77938.34
2023-05-02T08:13:06.238Z,77958.75
2023-05-02T08:15:32.669Z,77975.06
2023-05-02T08:17:59.710Z,77993.44
2023-05-02T08:20:26.188Z,78005.66
2023-05-02T08:22:52.533Z,78040.34
2023-05-02T08:25:18.992Z,78048.50
2023-05-02T08:27:45.645Z,78050.53
2023-05-02T08:30:12.794Z,78050.53
2023-05-02T08:32:39.225Z,78068.91
2023-05-02T08:35:06.607Z,78083.19
2023-05-02T08:37:32.930Z,78079.09
2023-05-02T08:40:00.504Z,78091.34
2023-05-02T08:42:28.541Z,78101.53
2023-05-02T08:44:54.887Z,78111.72
2023-05-02T08:47:23.309Z,78117.84
2023-05-02T08:49:50.207Z,78119.91
2023-05-02T08:52:19.278Z,78123.97
2023-05-02T08:54:46.438Z,78117.84
2023-05-02T08:57:12.853Z,78117.84
2023-05-02T08:59:39.183Z,78113.78
2023-05-02T09:02:23.466Z,78115.81
2023-05-02T09:04:55.069Z,78132.13
2023-05-02T09:07:22.060Z,78130.09
2023-05-02T09:09:48.628Z,78136.22
2023-05-02T09:12:16.177Z,78126.00
2023-05-02T09:14:43.783Z,78128.06
2023-05-02T09:17:10.366Z,78128.06
2023-05-02T09:19:36.793Z,78121.94
2023-05-02T09:22:03.170Z,78111.72
2023-05-02T09:24:29.839Z,78097.47
2023-05-02T09:27:02.716Z,78091.34
2023-05-02T09:29:36.048Z,78066.84
2023-05-02T09:32:04.637Z,78054.63
2023-05-02T09:34:31.686Z,78054.63
2023-05-02T09:36:58.327Z,78048.50
2023-05-02T09:39:26.490Z,78038.31
2023-05-02T09:41:53.082Z,78034.22
2023-05-02T09:44:22.152Z,78021.97
2023-05-02T09:46:57.263Z,78017.91
2023-05-02T09:49:46.468Z,78009.75
2023-05-02T09:52:18.040Z,77989.34
2023-05-02T09:54:46.483Z,77975.06
2023-05-02T09:57:13.477Z,77960.78
2023-05-02T09:59:40.893Z,77948.56
2023-05-02T10:02:12.078Z,77946.50
2023-05-02T10:04:39.858Z,77930.19
2023-05-02T10:07:10.131Z,77922.03
2023-05-02T10:09:40.661Z,77911.84
2023-05-02T10:12:08.209Z,77905.72
2023-05-02T10:14:42.487Z,77899.59
2023-05-02T10:17:14.200Z,77875.13
2023-05-02T10:20:06.150Z,77869.00
2023-05-02T10:22:34.476Z,77881.25
2023-05-02T10:25:03.198Z,77875.13
2023-05-02T10:27:31.817Z,77877.16
2023-05-02T10:29:59.314Z,77871.03
2023-05-02T10:32:29.282Z,77858.81
2023-05-02T10:35:04.064Z,77869.00
2023-05-02T10:37:33.851Z,77860.84
2023-05-02T10:40:00.589Z,77850.66
2023-05-02T10:42:28.534Z,77875.13
2023-05-02T10:44:54.935Z,77899.59
2023-05-02T10:47:27.650Z,77887.34
2023-05-02T10:50:04.726Z,77877.16
2023-05-02T10:52:38.878Z,77862.88
2023-05-02T10:55:15.896Z,77869.00
2023-05-02T10:58:21.336Z,77858.81
2023-05-02T11:00:47.802Z,77840.44
2023-05-02T11:03:14.330Z,77832.28
2023-05-02T11:06:09.509Z,77809.84
2023-05-02T11:08:36.212Z,77805.78
2023-05-02T11:11:38.151Z,77797.63
2023-05-02T11:14:04.504Z,77803.72
2023-05-02T11:16:58.972Z,77826.16
2023-05-02T11:19:28.091Z,77824.13
2023-05-02T11:22:26.946Z,77840.44
2023-05-02T11:24:53.995Z,77834.31
2023-05-02T11:27:29.328Z,77828.22
2023-05-02T11:29:57.340Z,77813.94
2023-05-02T11:32:25.406Z,77809.84
2023-05-02T11:34:52.775Z,77826.16
2023-05-02T11:37:21.027Z,77864.91
2023-05-02T11:39:47.430Z,77887.34
2023-05-02T11:42:30.450Z,77895.53
2023-05-02T11:45:01.340Z,77893.47
2023-05-02T11:47:29.388Z,77901.63
2023-05-02T11:49:57.459Z,77879.19
2023-05-02T11:52:24.408Z,77883.28
2023-05-02T11:54:55.368Z,77883.28
2023-05-02T11:57:22.664Z,77881.25
2023-05-02T11:59:58.122Z,77909.78
2023-05-02T12:02:44.318Z,77903.69
2023-05-02T12:05:13.184Z,77875.13
2023-05-02T12:07:41.775Z,77826.16
2023-05-02T12:10:09.456Z,77811.88
2023-05-02T12:12:37.058Z,77824.13
2023-05-02T12:15:04.950Z,77789.44
2023-05-02T12:17:32.296Z,77775.19
2023-05-02T12:19:59.575Z,77803.72
2023-05-02T12:22:28.947Z,77826.16
2023-05-02T12:24:55.547Z,77836.38
2023-05-02T12:27:21.964Z,77830.25
2023-05-02T12:29:49.193Z,77820.06
2023-05-02T12:32:27.640Z,77809.84
2023-05-02T12:34:54.232Z,77826.16
2023-05-02T12:37:24.843Z,77848.59
2023-05-02T12:39:52.581Z,77866.97
2023-05-02T12:42:24.075Z,77850.66
2023-05-02T12:44:54.632Z,77822.09
2023-05-02T12:47:22.698Z,77793.53
2023-05-02T12:49:50.499Z,77779.25
2023-05-02T12:52:21.295Z,77793.53
2023-05-02T12:54:48.430Z,77785.38
2023-05-02T12:57:26.147Z,77756.81
2023-05-02T12:59:54.121Z,77767.00
2023-05-02T13:02:21.468Z,77732.34
2023-05-02T13:04:47.911Z,77728.25
2023-05-02T13:07:14.281Z,77726.22
2023-05-02T13:09:40.738Z,77724.19
2023-05-02T13:12:07.500Z,77711.94
2023-05-02T13:14:33.903Z,77705.81
2023-05-02T13:17:00.601Z,77705.81
2023-05-02T13:19:30.796Z,77701.75
2023-05-02T13:21:57.711Z,77695.63
2023-05-02T13:24:24.067Z,77677.28
2023-05-02T13:26:51.340Z,77658.91
2023-05-02T13:29:17.684Z,77646.69
2023-05-02T13:31:44.215Z,77650.75
2023-05-02T13:34:10.564Z,77620.16
2023-05-02T13:36:40.621Z,77583.44
2023-05-02T13:39:06.955Z,77609.97
2023-05-02T13:41:33.265Z,77616.09
2023-05-02T13:43:59.569Z,77658.91
2023-05-02T13:46:26.036Z,77667.06
2023-05-02T13:48:52.434Z,77642.59
2023-05-02T13:51:18.784Z,77605.88
2023-05-02T13:53:45.229Z,77612.00
2023-05-02T13:56:11.574Z,77595.69
2023-05-02T13:58:37.885Z,77565.09
2023-05-02T14:01:04.438Z,77558.97
2023-05-02T14:03:30.943Z,77536.53
2023-05-02T14:05:57.387Z,77522.25
2023-05-02T14:08:23.711Z,77497.78
2023-05-02T14:10:50.031Z,77528.38
2023-05-02T14:13:16.331Z,77556.94
2023-05-02T14:15:42.693Z,77573.25
2023-05-02T14:18:09.369Z,77597.72
2023-05-02T14:20:35.822Z,77585.50
2023-05-02T14:23:02.145Z,77585.50
2023-05-02T14:25:28.478Z,77612.00
2023-05-02T14:27:54.782Z,77658.91
2023-05-02T14:30:21.352Z,77667.06
2023-05-02T14:32:47.720Z,77614.03
2023-05-02T14:35:14.082Z,77575.28
2023-05-02T14:37:40.514Z,77573.25
2023-05-02T14:40:07.887Z,77575.28
2023-05-02T14:42:34.639Z,77544.69
2023-05-02T14:45:02.256Z,77561.03
2023-05-02T14:47:32.512Z,77597.72
2023-05-02T14:49:59.066Z,77607.94
2023-05-02T14:52:25.452Z,77552.84
2023-05-02T14:54:51.818Z,77532.47
2023-05-02T14:57:18.290Z,77534.50
2023-05-02T14:59:45.040Z,77534.50
2023-05-02T15:02:11.575Z,77544.69
2023-05-02T15:04:38.097Z,77538.59
2023-05-02T15:07:04.598Z,77528.38
2023-05-02T15:09:31.011Z,77526.34
2023-05-02T15:11:57.484Z,77532.47
2023-05-02T15:14:23.915Z,77538.59
2023-05-02T15:16:50.667Z,77567.13
2023-05-02T15:19:17.122Z,77597.72
2023-05-02T15:21:43.440Z,77583.44
2023-05-02T15:24:10.508Z,77587.53
2023-05-02T15:26:36.922Z,77579.38
2023-05-02T15:29:04.347Z,77546.75
2023-05-02T15:31:31.295Z,77518.19
2023-05-02T15:33:57.724Z,77505.94
2023-05-02T15:36:28.870Z,77489.63
2023-05-02T15:38:56.115Z,77465.16
2023-05-02T15:41:24.541Z,77463.13
2023-05-02T15:43:50.850Z,77434.56
2023-05-02T15:46:17.295Z,77422.34
2023-05-02T15:48:43.618Z,77430.50
2023-05-02T15:51:10.701Z,77467.19
2023-05-02T15:53:42.444Z,77471.28
2023-05-02T15:56:12.082Z,77463.13
2023-05-02T15:58:39.456Z,77450.88
2023-05-02T16:01:06.106Z,77442.72
2023-05-02T16:03:33.988Z,77463.13
2023-05-02T16:06:00.865Z,77442.72
2023-05-02T16:08:28.034Z,77436.59
2023-05-02T16:10:54.568Z,77440.69
2023-05-02T16:13:21.058Z,77440.69
2023-05-02T16:15:48.187Z,77465.16
2023-05-02T16:18:15.286Z,77452.91
2023-05-02T16:20:42.050Z,77465.16
2023-05-02T16:23:09.055Z,77471.28
2023-05-02T16:25:35.822Z,77487.59
2023-05-02T16:28:02.781Z,77514.09
2023-05-02T16:30:29.119Z,77530.44
2023-05-02T16:32:55.586Z,77546.75
2023-05-02T16:35:21.983Z,77561.03
2023-05-02T16:37:49.317Z,77599.78
2023-05-02T16:40:15.852Z,77591.63
2023-05-02T16:42:42.280Z,77609.97
2023-05-02T16:45:08.988Z,77597.72
2023-05-02T16:47:35.896Z,77585.50
2023-05-02T16:50:03.104Z,77585.50
2023-05-02T16:52:29.762Z,77593.66
2023-05-02T16:54:56.521Z,77597.72
2023-05-02T16:57:23.164Z,77601.81
2023-05-02T16:59:51.734Z,77603.84
2023-05-02T17:02:19.934Z,77607.94
2023-05-02T17:04:46.557Z,77607.94
2023-05-02T17:07:13.025Z,77609.97
2023-05-02T17:09:40.807Z,77593.66
2023-05-02T17:12:08.628Z,77607.94
2023-05-02T17:14:34.953Z,77614.03
2023-05-02T17:17:01.454Z,77618.13
2023-05-02T17:19:27.991Z,77597.72
2023-05-02T17:21:54.814Z,77607.94
2023-05-02T17:24:21.271Z,77605.88
2023-05-02T17:26:47.657Z,77620.16
2023-05-02T17:29:14.230Z,77626.28
2023-05-02T17:31:41.032Z,77620.16
2023-05-02T17:34:07.664Z,77622.22
2023-05-02T17:36:35.252Z,77640.56
2023-05-02T17:39:02.194Z,77642.59
2023-05-02T17:41:28.640Z,77646.69
2023-05-02T17:43:55.093Z,77642.59
2023-05-02T17:46:21.606Z,77656.88
2023-05-02T17:48:48.935Z,77652.81
2023-05-02T17:51:15.305Z,77646.69
2023-05-02T17:53:42.512Z,77656.88
2023-05-02T17:56:08.933Z,77675.22
2023-05-02T17:58:36.425Z,77683.38
2023-05-02T18:01:11.082Z,77701.75
2023-05-02T18:03:38.224Z,77697.66
2023-05-02T18:06:04.902Z,77701.75
2023-05-02T18:08:31.360Z,77707.88
2023-05-02T18:10:58.683Z,77707.88
2023-05-02T18:13:26.064Z,77703.78
2023-05-02T18:15:59.658Z,77707.88
2023-05-02T18:18:26.160Z,77718.06
2023-05-02T18:20:52.535Z,77718.06
2023-05-02T18:23:18.908Z,77714.00
2023-05-02T18:25:45.431Z,77722.16
2023-05-02T18:28:13.237Z,77728.25
2023-05-02T18:30:39.790Z,77734.38
2023-05-02T18:33:07.474Z,77752.75
2023-05-02T18:35:33.898Z,77762.94
2023-05-02T18:38:00.337Z,77781.28
2023-05-02T18:40:27.122Z,77791.50
2023-05-02T18:42:53.507Z,77805.78
2023-05-02T18:45:20.938Z,77836.38
2023-05-02T18:47:47.366Z,77852.69
2023-05-02T18:50:13.805Z,77869.00
2023-05-02T18:52:40.260Z,77891.44
2023-05-02T18:55:07.268Z,77901.63
2023-05-02T18:57:33.917Z,77913.88
2023-05-02T19:00:00.895Z,77928.16
2023-05-02T19:02:27.657Z,77944.47
2023-05-02T19:04:55.162Z,77958.75
2023-05-02T19:07:21.588Z,77971.00
2023-05-02T19:09:48.141Z,77981.19
2023-05-02T19:12:14.614Z,77989.34
2023-05-02T19:14:41.153Z,78001.59
2023-05-02T19:17:07.616Z,78013.81
2023-05-02T19:19:34.027Z,78024.03
2023-05-02T19:22:00.397Z,78034.22
2023-05-02T19:24:26.861Z,78050.53
2023-05-02T19:26:53.562Z,78058.69
2023-05-02T19:29:20.011Z,78064.81
2023-05-02T19:31:46.513Z,78075.03
2023-05-02T19:34:13.036Z,78093.38
2023-05-02T19:36:39.466Z,78109.69
2023-05-02T19:39:06.207Z,78113.78
2023-05-02T19:41:32.665Z,78121.94
2023-05-02T19:43:59.866Z,78140.28
2023-05-02T19:46:26.897Z,78138.25
2023-05-02T19:48:53.433Z,78138.25
2023-05-02T19:51:25.535Z,78142.34
2023-05-02T19:53:58.293Z,78154.56
2023-05-02T19:56:26.076Z,78170.88
2023-05-02T19:58:53.422Z,78177.00
2023-05-02T20:01:19.958Z,78191.28
2023-05-02T20:03:46.790Z,78199.44
2023-05-02T20:06:13.249Z,78209.66
2023-05-02T20:08:39.658Z,78209.66
2023-05-02T20:11:06.062Z,78219.84
2023-05-02T20:13:32.458Z,78234.13
2023-05-02T20:15:58.827Z,78234.13
2023-05-02T20:18:25.217Z,78248.41
2023-05-02T20:20:51.592Z,78258.59
2023-05-02T20:23:17.974Z,78264.72
2023-05-02T20:25:44.661Z,78274.94
2023-05-02T20:28:11.310Z,78279.00
2023-05-02T20:30:39.744Z,78283.09
2023-05-02T20:33:14.913Z,78285.13
2023-05-02T20:35:42.469Z,78289.19
2023-05-02T20:38:09.690Z,78307.56
2023-05-02T20:40:40.006Z,78311.63
2023-05-02T20:43:06.482Z,78323.88
2023-05-02T20:45:33.310Z,78332.03
2023-05-02T20:47:59.721Z,78336.13
2023-05-02T20:50:26.545Z,78350.41
2023-05-02T20:52:52.948Z,78356.53
2023-05-02T20:55:20.274Z,78358.56
2023-05-02T20:57:51.004Z,78360.59
2023-05-02T21:00:18.153Z,78372.84
2023-05-02T21:02:44.569Z,78374.88
2023-05-02T21:05:11.088Z,78372.84
2023-05-02T21:07:40.297Z,78385.09
2023-05-02T21:10:10.086Z,78395.28
2023-05-02T21:12:36.616Z,78407.53
2023-05-02T21:15:03.109Z,78432.00
2023-05-02T21:17:29.486Z,78438.13
2023-05-02T21:19:55.929Z,78440.16
2023-05-02T21:22:22.289Z,78442.19
2023-05-02T21:24:50.069Z,78452.41
2023-05-02T21:27:16.525Z,78450.34
2023-05-02T21:29:43.010Z,78460.56
2023-05-02T21:32:09.461Z,78466.69
2023-05-02T21:34:36.080Z,78472.81
2023-05-02T21:37:02.427Z,78487.09
2023-05-02T21:39:28.812Z,78495.25
2023-05-02T21:41:56.162Z,78513.59
2023-05-02T21:44:22.544Z,78513.59
2023-05-02T21:46:50.606Z,78523.81
2023-05-02T21:49:17.140Z,78527.88
2023-05-02T21:51:43.521Z,78546.25
2023-05-02T21:54:09.962Z,78550.31
2023-05-02T21:56:36.407Z,78566.63
2023-05-02T21:59:03.391Z,78576.84
2023-05-02T22:01:29.934Z,78580.94
2023-05-02T22:03:57.920Z,78587.03
2023-05-02T22:06:24.980Z,78595.19
2023-05-02T22:08:52.270Z,78611.53
2023-05-02T22:11:21.530Z,78617.66
2023-05-02T22:13:48.361Z,78611.53
2023-05-02T22:16:15.320Z,78625.81
2023-05-02T22:18:44.682Z,78627.84
2023-05-02T22:21:12.064Z,78633.97
2023-05-02T22:23:38.493Z,78627.84
2023-05-02T22:26:04.872Z,78631.94
2023-05-02T22:28:31.259Z,78646.22
2023-05-02T22:30:57.764Z,78658.44
2023-05-02T22:33:24.314Z,78660.50
2023-05-02T22:35:50.698Z,78678.84
2023-05-02T22:38:17.063Z,78711.50
2023-05-02T22:40:43.470Z,78709.44
2023-05-02T22:43:10.049Z,78711.50
2023-05-02T22:45:37.218Z,78715.56
2023-05-02T22:48:04.723Z,78711.50
2023-05-02T22:50:31.825Z,78715.56
2023-05-02T22:52:59.409Z,78719.66
2023-05-02T22:55:25.892Z,78723.72
2023-05-02T22:57:52.413Z,78725.78
2023-05-02T23:00:18.771Z,78717.59
2023-05-02T23:02:45.693Z,78727.81
2023-05-02T23:05:12.147Z,78725.78
2023-05-02T23:07:38.679Z,78725.78
2023-05-02T23:10:06.235Z,78713.53
2023-05-02T23:12:32.741Z,78709.44
2023-05-02T23:14:59.120Z,78707.41
2023-05-02T23:17:25.657Z,78707.41
2023-05-02T23:19:52.108Z,78701.28
2023-05-02T23:22:18.490Z,78707.41
2023-05-02T23:24:47.324Z,78721.69
2023-05-02T23:27:13.911Z,78729.84
2023-05-02T23:29:40.419Z,78727.81
2023-05-02T23:32:08.016Z,78742.09
2023-05-02T23:34:38.140Z,78748.22
2023-05-02T23:37:06.379Z,78758.41
2023-05-02T23:39:33.300Z,78760.44
2023-05-02T23:42:00.555Z,78770.66
2023-05-02T23:44:27.121Z,78774.72
2023-05-02T23:46:53.583Z,78778.81
2023-05-02T23:49:20.312Z,78784.94
2023-05-02T23:51:46.858Z,78782.91
2023-05-02T23:54:13.439Z,78795.13
2023-05-02T23:56:39.837Z,78795.13
2023-05-02T23:59:06.202Z,78797.19
